createdAt,value
2022-11-29T00:00:25.200Z,88.96
2022-11-29T00:03:17.236Z,88.70
2022-11-29T00:05:45.172Z,88.43
2022-11-29T00:08:13.643Z,88.01
2022-11-29T00:10:41.362Z,89.00
2022-11-29T00:16:25.164Z,88.40
2022-11-29T00:18:53.171Z,88.52
2022-11-29T00:21:26.184Z,88.15
2022-11-29T00:23:59.565Z,88.63
2022-11-29T00:26:27.168Z,89.48
2022-11-29T00:28:55.155Z,89.29
2022-11-29T00:31:26.398Z,89.26
2022-11-29T00:33:53.593Z,88.76
2022-11-29T00:36:26.249Z,89.47
2022-11-29T00:38:53.210Z,89.41
2022-11-29T00:41:26.247Z,89.61
2022-11-29T00:44:20.658Z,89.15
2022-11-29T00:46:49.440Z,89.33
2022-11-29T00:49:17.294Z,89.33
2022-11-29T00:51:50.557Z,89.63
2022-11-29T00:54:19.201Z,89.76
2022-11-29T00:56:47.243Z,89.22
2022-11-29T00:59:15.133Z,88.94
2022-11-29T01:01:43.241Z,89.48
2022-11-29T01:04:11.273Z,89.67
2022-11-29T01:06:39.165Z,89.28
2022-11-29T01:09:31.154Z,89.70
2022-11-29T01:11:59.149Z,89.44
2022-11-29T01:14:27.161Z,89.73
2022-11-29T01:16:59.476Z,88.94
2022-11-29T01:19:32.154Z,88.69
2022-11-29T01:22:05.123Z,88.94
2022-11-29T01:24:33.170Z,89.30
2022-11-29T01:27:01.361Z,88.91
2022-11-29T01:29:29.148Z,88.43
2022-11-29T01:31:57.138Z,89.04
2022-11-29T01:34:25.138Z,89.56
2022-11-29T01:36:53.173Z,89.57
2022-11-29T01:39:21.170Z,88.97
2022-11-29T01:41:49.111Z,89.05
2022-11-29T01:44:17.105Z,88.83
2022-11-29T01:46:47.175Z,88.85
2022-11-29T01:50:05.874Z,89.03
2022-11-29T01:52:33.386Z,89.72
2022-11-29T01:55:04.031Z,89.24
2022-11-29T01:57:33.899Z,89.52
2022-11-29T02:00:08.665Z,89.39
2022-11-29T02:03:03.437Z,88.92
2022-11-29T02:05:55.402Z,88.85
2022-11-29T02:08:33.920Z,89.34
2022-11-29T02:11:21.780Z,89.29
2022-11-29T02:14:06.372Z,89.36
2022-11-29T02:16:36.131Z,89.74
2022-11-29T02:19:24.427Z,89.01
2022-11-29T02:22:48.648Z,88.99
2022-11-29T02:26:09.674Z,89.25
2022-11-29T02:32:13.409Z,89.27
2022-11-29T02:34:51.935Z,89.21
2022-11-29T02:37:40.967Z,89.40
2022-11-29T02:40:51.444Z,89.42
2022-11-29T02:43:29.983Z,89.37
2022-11-29T02:46:21.703Z,88.95
2022-11-29T02:49:10.864Z,89.36
2022-11-29T02:55:09.536Z,89.36
2022-11-29T03:01:22.946Z,88.96
2022-11-29T03:04:07.432Z,89.37
2022-11-29T03:07:03.372Z,88.83
2022-11-29T03:12:52.720Z,88.55
2022-11-29T03:15:49.443Z,89.06
2022-11-29T03:18:31.997Z,88.24
2022-11-29T03:21:17.715Z,88.51
2022-11-29T03:24:19.433Z,88.56
2022-11-29T03:26:59.463Z,88.02
2022-11-29T03:29:59.695Z,87.93
2022-11-29T03:32:29.958Z,88.58
2022-11-29T03:35:04.611Z,88.26
2022-11-29T03:37:58.551Z,87.79
2022-11-29T03:41:01.147Z,87.81
2022-11-29T03:43:55.005Z,88.66
2022-11-29T03:46:37.421Z,89.17
2022-11-29T03:49:34.360Z,89.05
2022-11-29T03:59:14.868Z,88.80
2022-11-29T04:02:21.063Z,88.73
2022-11-29T04:05:26.415Z,88.37
2022-11-29T04:08:06.821Z,88.85
2022-11-29T04:10:37.836Z,88.79
2022-11-29T04:13:10.824Z,88.93
2022-11-29T04:16:12.553Z,89.04
2022-11-29T04:19:19.389Z,89.08
2022-11-29T04:22:07.927Z,88.53
2022-11-29T04:25:13.851Z,87.97
2022-11-29T04:27:53.419Z,87.68
2022-11-29T04:30:56.617Z,88.43
2022-11-29T04:34:07.294Z,87.63
2022-11-29T04:37:06.133Z,87.32
2022-11-29T04:39:45.375Z,87.30
2022-11-29T04:42:28.408Z,87.08
2022-11-29T04:45:32.745Z,86.85
2022-11-29T04:48:42.893Z,86.85
2022-11-29T04:51:50.323Z,88.01
2022-11-29T04:54:22.808Z,87.92
2022-11-29T04:56:58.068Z,87.30
2022-11-29T04:59:35.644Z,87.27
2022-11-29T05:05:58.950Z,88.94
2022-11-29T05:08:36.196Z,88.68
2022-11-29T05:11:18.124Z,89.45
2022-11-29T05:14:34.675Z,89.04
2022-11-29T05:17:24.237Z,88.97
2022-11-29T05:20:19.368Z,88.52
2022-11-29T05:23:11.014Z,89.09
2022-11-29T05:26:05.546Z,89.39
2022-11-29T05:28:54.795Z,89.72
2022-11-29T05:31:56.985Z,89.77
2022-11-29T05:34:44.639Z,88.95
2022-11-29T05:37:18.979Z,88.98
2022-11-29T05:40:36.362Z,88.26
2022-11-29T05:43:27.820Z,89.14
2022-11-29T05:45:57.942Z,89.35
2022-11-29T05:48:28.598Z,89.50
2022-11-29T05:55:13.706Z,88.15
2022-11-29T05:58:27.157Z,88.65
2022-11-29T06:01:17.726Z,88.81
2022-11-29T06:04:02.304Z,89.39
2022-11-29T06:06:56.810Z,89.63
2022-11-29T06:09:32.616Z,89.59
2022-11-29T06:12:16.975Z,89.12
2022-11-29T06:15:11.633Z,89.67
2022-11-29T06:17:55.195Z,89.39
2022-11-29T06:20:44.594Z,89.45
2022-11-29T06:29:55.945Z,88.98
2022-11-29T06:32:44.020Z,88.83
2022-11-29T06:35:35.606Z,88.76
2022-11-29T06:38:34.451Z,89.12
2022-11-29T06:41:06.668Z,89.53
2022-11-29T06:43:39.512Z,89.48
2022-11-29T06:46:32.823Z,89.22
2022-11-29T06:49:34.583Z,88.99
2022-11-29T06:52:24.850Z,89.35
2022-11-29T06:55:14.157Z,89.14
2022-11-29T06:57:44.084Z,88.62
2022-11-29T07:00:31.626Z,88.89
2022-11-29T07:03:29.021Z,89.27
2022-11-29T07:05:58.063Z,89.08
2022-11-29T07:08:26.220Z,88.76
2022-11-29T07:11:00.730Z,87.82
2022-11-29T07:13:29.472Z,87.78
2022-11-29T07:19:16.155Z,89.40
2022-11-29T07:22:01.606Z,89.58
2022-11-29T07:24:45.763Z,89.49
2022-11-29T07:27:50.111Z,89.68
2022-11-29T07:30:21.368Z,89.31
2022-11-29T07:33:11.247Z,88.23
2022-11-29T07:36:00.439Z,88.92
2022-11-29T07:38:36.386Z,89.63
2022-11-29T07:41:29.907Z,89.39
2022-11-29T07:44:14.328Z,88.91
2022-11-29T07:46:41.240Z,88.71
2022-11-29T07:49:11.885Z,88.81
2022-11-29T07:52:10.179Z,88.72
2022-11-29T07:54:37.204Z,89.51
2022-11-29T07:59:57.194Z,89.00
2022-11-29T08:02:29.730Z,89.55
2022-11-29T08:04:57.618Z,89.15
2022-11-29T08:07:25.360Z,89.27
2022-11-29T08:09:58.540Z,89.05
2022-11-29T08:12:25.163Z,89.34
2022-11-29T08:14:53.148Z,88.78
2022-11-29T08:17:21.108Z,88.99
2022-11-29T08:19:49.125Z,89.68
2022-11-29T08:22:41.245Z,89.05
2022-11-29T08:25:35.151Z,88.74
2022-11-29T08:28:04.820Z,88.90
2022-11-29T08:30:33.161Z,89.33
2022-11-29T08:33:01.432Z,88.97
2022-11-29T08:35:29.816Z,89.25
2022-11-29T08:41:39.187Z,89.44
2022-11-29T08:44:11.157Z,89.55
2022-11-29T08:46:57.698Z,89.50
2022-11-29T08:49:25.363Z,89.45
2022-11-29T08:52:13.665Z,88.58
2022-11-29T08:57:40.203Z,88.58
2022-11-29T09:00:10.024Z,88.94
2022-11-29T09:02:37.466Z,88.53
2022-11-29T09:05:06.791Z,88.30
2022-11-29T09:07:40.291Z,88.99
2022-11-29T09:10:33.120Z,88.79
2022-11-29T09:13:01.658Z,88.12
2022-11-29T09:15:29.267Z,88.79
2022-11-29T09:17:57.551Z,88.88
2022-11-29T09:20:25.351Z,88.26
2022-11-29T09:22:53.251Z,88.83
2022-11-29T09:25:21.127Z,88.63
2022-11-29T09:27:49.115Z,88.55
2022-11-29T09:30:23.849Z,89.09
2022-11-29T09:32:51.225Z,89.07
2022-11-29T09:35:19.132Z,88.47
2022-11-29T09:37:47.141Z,88.93
2022-11-29T09:40:23.220Z,88.61
2022-11-29T09:43:28.666Z,88.65
2022-11-29T09:46:16.042Z,88.21
2022-11-29T09:49:16.064Z,88.48
2022-11-29T09:51:48.982Z,88.35
2022-11-29T09:54:40.287Z,89.03
2022-11-29T09:57:10.755Z,89.34
2022-11-29T09:59:44.443Z,89.01
2022-11-29T10:02:21.135Z,88.88
2022-11-29T10:05:01.917Z,88.85
2022-11-29T10:07:43.554Z,88.76
2022-11-29T10:10:27.658Z,88.54
2022-11-29T10:13:15.696Z,88.92
2022-11-29T10:15:46.127Z,88.86
2022-11-29T10:18:27.025Z,88.75
2022-11-29T10:20:58.536Z,88.97
2022-11-29T10:23:42.074Z,88.41
2022-11-29T10:26:11.865Z,88.68
2022-11-29T10:28:44.923Z,88.57
2022-11-29T10:31:16.134Z,88.04
2022-11-29T10:33:44.398Z,87.77
2022-11-29T10:36:38.991Z,87.59
2022-11-29T10:39:49.572Z,88.12
2022-11-29T10:42:41.737Z,87.76
2022-11-29T10:45:45.448Z,88.13
2022-11-29T10:51:37.353Z,88.42
2022-11-29T10:54:33.146Z,88.18
2022-11-29T10:57:01.878Z,87.28
2022-11-29T10:59:31.018Z,88.13
2022-11-29T11:02:24.300Z,87.51
2022-11-29T11:04:51.183Z,88.01
2022-11-29T11:07:35.926Z,88.87
2022-11-29T11:10:26.480Z,88.16
2022-11-29T11:13:05.376Z,88.16
2022-11-29T11:15:33.789Z,88.05
2022-11-29T11:18:04.925Z,88.43
2022-11-29T11:20:40.956Z,88.55
2022-11-29T11:23:31.377Z,88.03
2022-11-29T11:26:11.007Z,87.92
2022-11-29T11:28:53.854Z,88.46
2022-11-29T11:31:40.785Z,89.01
2022-11-29T11:34:34.583Z,88.88
2022-11-29T11:37:20.383Z,88.14
2022-11-29T11:39:50.413Z,88.45
2022-11-29T11:42:42.464Z,88.94
2022-11-29T11:45:38.573Z,89.01
2022-11-29T11:48:15.446Z,88.91
2022-11-29T11:50:53.860Z,88.24
2022-11-29T11:56:16.225Z,88.93
2022-11-29T11:58:43.108Z,88.98
2022-11-29T12:01:25.245Z,88.78
2022-11-29T12:04:01.629Z,88.07
2022-11-29T12:06:56.191Z,88.72
2022-11-29T12:09:35.293Z,89.02
2022-11-29T12:12:25.627Z,88.49
2022-11-29T12:14:58.121Z,88.58
2022-11-29T12:17:36.697Z,88.95
2022-11-29T12:20:14.150Z,88.47
2022-11-29T12:22:58.218Z,88.88
2022-11-29T12:25:32.006Z,88.92
2022-11-29T12:27:59.212Z,89.23
2022-11-29T12:30:32.175Z,89.16
2022-11-29T12:33:13.773Z,88.99
2022-11-29T12:36:12.103Z,88.97
2022-11-29T12:39:07.793Z,89.34
2022-11-29T12:44:50.323Z,89.26
2022-11-29T12:47:41.892Z,89.54
2022-11-29T12:50:17.367Z,89.38
2022-11-29T12:53:00.217Z,89.27
2022-11-29T12:55:48.393Z,89.18
2022-11-29T12:58:32.766Z,89.70
2022-11-29T13:01:24.595Z,89.26
2022-11-29T13:04:29.163Z,89.24
2022-11-29T13:07:26.609Z,89.46
2022-11-29T13:10:04.231Z,88.93
2022-11-29T13:13:09.654Z,89.54
2022-11-29T13:15:44.312Z,89.38
2022-11-29T13:18:44.951Z,89.23
2022-11-29T13:21:50.283Z,89.63
2022-11-29T13:24:25.501Z,89.31
2022-11-29T13:27:06.548Z,89.66
2022-11-29T13:30:00.862Z,90.08
2022-11-29T13:32:40.342Z,89.22
2022-11-29T13:35:41.222Z,89.32
2022-11-29T13:38:27.852Z,89.20
2022-11-29T13:41:27.816Z,89.45
2022-11-29T13:44:23.290Z,89.62
2022-11-29T13:47:08.431Z,90.19
2022-11-29T13:50:02.793Z,89.95
2022-11-29T13:53:04.445Z,90.19
2022-11-29T13:58:30.538Z,89.34
2022-11-29T14:01:10.400Z,90.22
2022-11-29T14:03:43.813Z,89.74
2022-11-29T14:06:40.425Z,89.53
2022-11-29T14:09:27.443Z,89.90
2022-11-29T14:12:03.064Z,90.08
2022-11-29T14:14:54.606Z,90.25
2022-11-29T14:17:33.864Z,90.12
2022-11-29T14:20:39.183Z,90.49
2022-11-29T14:23:09.922Z,90.31
2022-11-29T14:25:58.655Z,90.05
2022-11-29T14:28:28.886Z,89.47
2022-11-29T14:34:08.806Z,90.14
2022-11-29T14:36:45.648Z,89.88
2022-11-29T14:39:41.151Z,90.10
2022-11-29T14:42:23.034Z,90.37
2022-11-29T14:44:54.291Z,89.93
2022-11-29T14:47:31.371Z,89.12
2022-11-29T14:50:03.293Z,89.39
2022-11-29T14:52:35.795Z,89.82
2022-11-29T14:55:05.649Z,89.14
2022-11-29T14:58:01.227Z,89.31
2022-11-29T15:00:47.396Z,89.53
2022-11-29T15:03:38.831Z,89.46
2022-11-29T15:06:26.837Z,89.26
2022-11-29T15:09:05.832Z,89.76
2022-11-29T15:12:01.595Z,89.53
2022-11-29T15:14:48.496Z,89.11
2022-11-29T15:17:36.422Z,88.45
2022-11-29T15:20:45.023Z,89.09
2022-11-29T15:23:18.320Z,88.77
2022-11-29T15:28:43.379Z,89.20
2022-11-29T15:31:15.038Z,89.69
2022-11-29T15:33:45.907Z,89.80
2022-11-29T15:36:19.443Z,89.68
2022-11-29T15:38:53.332Z,89.27
2022-11-29T15:41:22.875Z,89.70
2022-11-29T15:44:03.015Z,89.55
2022-11-29T15:46:34.048Z,89.46
2022-11-29T15:49:18.048Z,89.77
2022-11-29T15:51:50.159Z,88.69
2022-11-29T15:54:39.137Z,89.24
2022-11-29T15:57:18.739Z,89.11
2022-11-29T16:00:23.809Z,89.47
2022-11-29T16:06:01.064Z,89.25
2022-11-29T16:08:34.430Z,89.10
2022-11-29T16:11:01.451Z,89.17
2022-11-29T16:13:45.436Z,89.42
2022-11-29T16:16:19.474Z,89.44
2022-11-29T16:18:53.581Z,88.98
2022-11-29T16:21:31.107Z,89.03
2022-11-29T16:24:12.253Z,88.85
2022-11-29T16:26:43.295Z,89.30
2022-11-29T16:29:30.890Z,89.19
2022-11-29T16:31:59.432Z,89.45
2022-11-29T16:34:31.215Z,89.25
2022-11-29T16:37:08.936Z,89.47
2022-11-29T16:39:43.441Z,89.02
2022-11-29T16:42:14.176Z,89.58
2022-11-29T16:44:46.548Z,89.00
2022-11-29T16:47:21.169Z,89.46
2022-11-29T16:50:01.409Z,89.46
2022-11-29T16:52:38.726Z,89.18
2022-11-29T16:55:07.605Z,89.60
2022-11-29T16:57:35.856Z,89.17
2022-11-29T17:00:10.906Z,89.20
2022-11-29T17:05:31.227Z,89.32
2022-11-29T17:07:59.242Z,88.82
2022-11-29T17:10:28.809Z,89.00
2022-11-29T17:18:42.116Z,90.54
2022-11-29T17:21:23.253Z,90.17
2022-11-29T17:23:52.493Z,90.38
2022-11-29T17:26:20.034Z,90.62
2022-11-29T17:28:49.034Z,89.90
2022-11-29T17:31:22.249Z,90.67
2022-11-29T17:33:49.902Z,90.58
2022-11-29T17:39:11.235Z,90.92
2022-11-29T17:41:39.162Z,90.16
2022-11-29T17:44:07.466Z,89.75
2022-11-29T17:46:36.643Z,91.03
2022-11-29T17:49:13.222Z,91.29
2022-11-29T17:51:56.974Z,90.49
2022-11-29T17:54:25.195Z,90.37
2022-11-29T17:56:59.686Z,90.84
2022-11-29T17:59:27.238Z,90.32
2022-11-29T18:01:55.608Z,90.36
2022-11-29T18:04:23.306Z,89.99
2022-11-29T18:06:51.174Z,89.83
2022-11-29T18:09:24.800Z,89.65
2022-11-29T18:11:57.153Z,90.72
2022-11-29T18:14:28.166Z,90.65
2022-11-29T18:17:01.213Z,90.65
2022-11-29T18:19:29.826Z,89.69
2022-11-29T18:21:57.132Z,90.21
2022-11-29T18:24:29.234Z,89.97
2022-11-29T18:27:21.778Z,90.41
2022-11-29T18:30:15.880Z,89.75
2022-11-29T18:33:09.130Z,89.30
2022-11-29T18:35:37.175Z,89.02
2022-11-29T18:38:20.420Z,88.65
2022-11-29T18:40:47.183Z,88.98
2022-11-29T18:43:16.582Z,89.12
2022-11-29T18:45:49.144Z,88.81
2022-11-29T18:48:22.140Z,88.96
2022-11-29T18:50:49.156Z,89.05
2022-11-29T18:53:17.133Z,88.78
2022-11-29T18:55:45.125Z,89.52
2022-11-29T18:58:13.188Z,89.82
2022-11-29T19:00:41.216Z,89.26
2022-11-29T19:03:13.158Z,88.85
2022-11-29T19:05:50.244Z,88.53
2022-11-29T19:08:23.207Z,89.41
2022-11-29T19:10:51.174Z,89.03
2022-11-29T19:13:44.211Z,89.24
2022-11-29T19:16:15.185Z,89.65
2022-11-29T19:18:56.107Z,90.43
2022-11-29T19:21:24.944Z,90.11
2022-11-29T19:23:58.328Z,90.01
2022-11-29T19:26:27.527Z,89.69
2022-11-29T19:28:55.281Z,90.10
2022-11-29T19:31:47.288Z,89.80
2022-11-29T19:34:15.286Z,89.92
2022-11-29T19:36:44.180Z,90.25
2022-11-29T19:39:15.195Z,90.44
2022-11-29T19:41:45.988Z,90.87
2022-11-29T19:44:13.412Z,90.87
2022-11-29T19:46:46.902Z,91.21
2022-11-29T19:49:15.158Z,90.49
2022-11-29T19:52:12.139Z,90.73
2022-11-29T19:54:39.131Z,90.63
2022-11-29T19:57:07.191Z,90.58
2022-11-29T19:59:35.187Z,90.54
2022-11-29T20:02:32.198Z,90.04
2022-11-29T20:05:04.739Z,90.53
2022-11-29T20:07:33.280Z,91.17
2022-11-29T20:10:06.224Z,91.15
2022-11-29T20:12:33.199Z,90.69
2022-11-29T20:15:01.276Z,90.06
2022-11-29T20:17:29.136Z,90.00
2022-11-29T20:23:13.241Z,90.57
2022-11-29T20:25:41.148Z,90.41
2022-11-29T20:28:09.189Z,89.86
2022-11-29T20:30:37.132Z,89.21
2022-11-29T20:33:05.356Z,89.19
2022-11-29T20:35:33.525Z,88.83
2022-11-29T20:38:40.728Z,90.06
2022-11-29T20:41:17.050Z,89.79
2022-11-29T20:43:59.833Z,90.14
2022-11-29T20:46:28.646Z,90.30
2022-11-29T20:49:01.687Z,90.34
2022-11-29T20:51:41.065Z,90.26
2022-11-29T20:57:03.312Z,89.36
2022-11-29T20:59:31.159Z,89.48
2022-11-29T21:02:01.224Z,89.09
2022-11-29T21:04:34.390Z,89.45
2022-11-29T21:07:01.275Z,89.47
2022-11-29T21:09:29.227Z,88.99
2022-11-29T21:11:57.643Z,88.86
2022-11-29T21:14:25.506Z,89.95
2022-11-29T21:16:53.614Z,89.97
2022-11-29T21:19:27.866Z,90.05
2022-11-29T21:22:14.294Z,90.39
2022-11-29T21:27:52.666Z,89.77
2022-11-29T21:30:23.962Z,90.20
2022-11-29T21:32:52.071Z,90.37
2022-11-29T21:35:19.554Z,90.99
2022-11-29T21:37:47.347Z,90.84
2022-11-29T21:40:15.286Z,90.57
2022-11-29T21:43:07.197Z,90.23
2022-11-29T21:45:35.163Z,90.08
2022-11-29T21:48:03.239Z,89.95
2022-11-29T21:50:31.165Z,90.44
2022-11-29T21:52:59.131Z,89.73
2022-11-29T21:55:31.863Z,90.13
2022-11-29T21:58:05.421Z,90.33
2022-11-29T22:00:37.772Z,90.13
2022-11-29T22:03:05.362Z,90.36
2022-11-29T22:05:33.311Z,89.83
2022-11-29T22:08:01.476Z,89.84
2022-11-29T22:11:03.569Z,89.74
2022-11-29T22:13:31.612Z,90.67
2022-11-29T22:16:07.781Z,90.37
2022-11-29T22:18:36.958Z,90.06
2022-11-29T22:21:07.182Z,90.89
2022-11-29T22:23:39.400Z,90.49
2022-11-29T22:26:07.830Z,90.81
2022-11-29T22:28:35.867Z,89.93
2022-11-29T22:31:05.090Z,89.89
2022-11-29T22:33:33.614Z,90.07
2022-11-29T22:36:05.492Z,90.48
2022-11-29T22:41:32.617Z,89.69
2022-11-29T22:44:07.006Z,90.51
2022-11-29T22:46:39.277Z,89.41
2022-11-29T22:49:07.328Z,89.27
2022-11-29T22:51:37.649Z,89.05
2022-11-29T22:54:08.026Z,89.75
2022-11-29T22:56:43.616Z,89.46
2022-11-29T22:59:11.562Z,89.56
2022-11-29T23:01:40.716Z,89.30
2022-11-29T23:04:15.852Z,89.55
2022-11-29T23:06:45.197Z,89.43
2022-11-29T23:09:21.174Z,88.62
2022-11-29T23:11:54.320Z,89.46
2022-11-29T23:14:23.186Z,88.75
2022-11-29T23:16:52.087Z,88.44
2022-11-29T23:19:19.609Z,88.09
2022-11-29T23:24:42.247Z,89.35
2022-11-29T23:27:09.144Z,90.23
2022-11-29T23:30:06.171Z,90.16
2022-11-29T23:32:33.188Z,89.17
2022-11-29T23:35:01.158Z,88.35
2022-11-29T23:37:34.431Z,88.17
2022-11-29T23:40:01.151Z,88.17
2022-11-29T23:42:29.254Z,88.05
2022-11-29T23:44:57.402Z,87.85
2022-11-29T23:47:25.370Z,88.08
2022-11-29T23:52:45.789Z,89.34
2022-11-29T23:55:14.633Z,89.67
2022-11-29T23:57:43.617Z,89.69
